Weather observations for the past three days for
Columbus, Columbus Municipal Airport
Imperial (Metric)
Date Time (cdt) Wind (mph) Vis. (mi.) Weather Sky Cond. Temperature (ºF) Relative Humidity Wind Chill (°F) Heat Index (°F) Pressure Precipitation (in)
Air Dwpt 6 hour altimeter (in) sea level (mb) 1 hr 3 hr 6 hr
Max. Min.
03 23:56 Calm 10.00 Fair CLR 50 39.9 68% 29.74 1007.0
03 22:56 Calm 10.00 Fair CLR 50 39.9 68% 29.76 1007.5
03 21:56 NE 6 10.00 Fair CLR 59 39.9 49% 29.77 1007.7
03 20:56 S 3 10.00 Fair CLR 62.1 41 46% 29.77 1008.0
03 19:56 S 6 10.00 Fair CLR 68 39.9 36% 29.79 1008.6
03 18:56 Calm 9.00 Fair CLR 73 37 75 69.1 27% 29.8 1009.0
03 17:56 NE 5 10.00 Fair CLR 73.9 39 28% 29.81 1009.2
03 16:56 Calm 10.00 Fair CLR 73.9 37 26% 29.82 1009.5
03 15:56 Vrbl 5 10.00 Fair CLR 73 37.9 28% 29.85 1010.4
03 14:56 N 10 G 16 10.00 Fair CLR 72 39 30% 29.88 1011.3
03 13:56 N 9 10.00 Fair CLR 72 39.9 31% 29.89 1011.7
03 12:56 Vrbl 7 10.00 Fair CLR 70 39.9 70 48.9 34% 29.91 1012.3
03 11:56 NE 7 10.00 Fair CLR 69.1 39.9 35% 29.92 1012.9
03 10:56 NE 12 10.00 Fair CLR 66.9 42.1 41% 29.92 1012.9
03 09:56 N 8 10.00 Fair CLR 64 42.1 45% 29.93 1013.2
03 08:56 NW 7 10.00 Fair CLR 59 44.1 58% 29.91 1012.7
03 07:56 W 3 10.00 Fair CLR 50 39.9 68% 29.89 1012.2
03 06:56 W 5 10.00 Fair CLR 48.9 37.9 57.9 46.9 66% 48 29.87 1011.5
03 05:56 W 6 10.00 Fair CLR 51.1 37.9 61% 29.86 1011.2
03 04:56 SW 10 10.00 Fair CLR 54 37 53% 29.85 1010.6
03 03:56 W 13 G 22 10.00 Fair CLR 54 33.1 45% 29.89 1012.0
03 02:56 SW 16 G 22 10.00 Fair CLR 55.9 30.9 39% 29.86 1010.8
03 01:56 SW 15 G 23 10.00 Fair CLR 57 30.9 37% 29.87 1011.4
03 00:56 S 17 10.00 Fair CLR 57.9 30.9 68 57.9 36% 29.87 1011.4
02 23:56 S 16 G 22 10.00 Fair CLR 59 30 33% 29.88 1011.9
02 22:56 S 16 10.00 Fair CLR 60.1 28.9 31% 29.9 1012.3
02 21:56 S 13 10.00 Fair CLR 60.1 30.9 33% 29.92 1013.1
02 20:56 S 9 10.00 Fair CLR 60.1 33.1 36% 29.92 1013.7
02 19:56 S 9 10.00 Fair CLR 66 30.9 27% 29.94 1014.3
02 18:56 SW 13 10.00 Fair CLR 68 28.9 69.1 62.1 23% 29.96 1015.2
02 17:56 SW 10 10.00 Fair CLR 68 30 24% 29.98 1015.9
02 16:56 SW 14 G 21 10.00 Fair CLR 68 28.9 23% 30.01 1016.9
02 15:56 W 13 10.00 Fair CLR 66.9 32 27% 30.04 1018.0
02 14:56 SW 10 10.00 Fair CLR 66 32 28% 30.07 1018.9
02 13:56 W 12 10.00 Fair CLR 64 30.9 29% 30.1 1020.0
02 12:56 W 9 10.00 Fair CLR 62.1 34 62.1 30.9 35% 30.13 1020.8
02 11:56 W 8 10.00 Fair CLR 60.1 32 35% 30.15 1021.6
02 10:56 W 9 G 17 10.00 Fair CLR 57 30.9 37% 30.17 1022.4
02 09:56 SW 7 10.00 Fair CLR 53.1 32 45% 30.19 1022.9
02 08:56 W 7 10.00 Fair CLR 46 32 58% 43 30.19 1023.3
02 07:56 Calm 10.00 Fair CLR 37 30.9 79% 30.19 1023.3
02 06:56 Calm 10.00 Fair CLR 30.9 28.9 37 27 92% 30.19 1023.3
02 05:56 W 3 10.00 Fair CLR 27 25 92% 30.18 1023.2
02 04:56 W 3 10.00 Fair CLR 28.9 26.1 89% 30.18 1023.1
02 03:56 Calm 10.00 Fair CLR 28.9 26.1 89% 30.18 1023.0
02 02:56 W 3 10.00 Fair CLR 33.1 27 78% 30.17 1022.5
02 01:56 Calm 10.00 Fair CLR 32 28 85% 30.18 1022.9
02 00:56 Calm 10.00 Fair CLR 37 28.9 55 37 73% 30.17 1022.7
01 23:56 Calm 10.00 Fair CLR 41 27 57% 30.17 1022.3
01 22:56 N 3 10.00 Fair CLR 37.9 27 65% 30.16 1022.1
01 21:56 N 5 10.00 Fair CLR 41 25 53% 38 30.15 1021.8
01 20:56 N 6 10.00 Fair CLR 44.1 27 51% 41 30.13 1021.1
01 19:56 N 13 10.00 Fair CLR 52 25 35% 30.11 1020.5
01 18:56 N 12 G 22 10.00 Fair CLR 55 25 57 54 31% 30.1 1020.3
01 17:56 N 8 10.00 Fair CLR 55.9 28 34% 30.1 1020.0
01 16:56 N 8 G 22 10.00 Fair CLR 55.9 27 33% 30.1 1020.2
01 15:56 N 16 G 22 10.00 Fair CLR 57 27 32% 30.11 1020.3
01 14:56 N 14 G 18 10.00 Fair CLR 55.9 28.9 36% 30.12 1020.8
01 13:56 NW 8 10.00 Fair CLR 55.9 30.9 39% 30.12 1020.9
01 12:56 N 17 G 25 10.00 Fair CLR 54 32 54 36 43% 30.13 1021.2
01 11:56 N 14 G 24 10.00 Fair CLR 52 32 47% 30.13 1021.4
01 10:56 N 14 G 22 10.00 Fair CLR 51.1 33.1 50% 30.13 1021.4
01 09:56 N 18 G 25 10.00 Fair CLR 48.9 33.1 55% 43 30.13 1021.1
01 08:56 NW 12 10.00 Fair CLR 45 37 74% 40 30.13 1021.0
01 07:56 NW 10 10.00 Fair CLR 41 35.1 79% 35 30.12 1020.7
01 06:56 W 7 10.00 Partly Cloudy SCT085 36 30.9 37.9 33.1 82% 31 30.1 1020.3
01 05:56 W 7 10.00 Mostly Cloudy BKN085 36 30.9 82% 31 30.09 1020.0
01 04:56 W 8 10.00 Partly Cloudy SCT090 36 30.9 82% 30 30.09 1019.9
01 03:56 W 8 10.00 Mostly Cloudy BKN095 37.9 32 79% 33 30.09 0.0
01 02:56 W 9 10.00 A Few Clouds FEW100 35.1 32 89% 29 30.09 0.0
01 01:56 W 3 10.00 Partly Cloudy SCT095 33.1 30 89% 30.1 0.0
01 00:56 Calm 10.00 Partly Cloudy SCT085 34 30.9 53.1 34 89% 30.1 0.0
Date Time (cdt) Wind (mph) Vis. (mi.) Weather Sky Cond. Air Dwpt Max. Min. Relative Humidity Wind Chill (°F) Heat Index (°F) altimeter (in) sea level (mb) 1 hr 3 hr 6 hr
6 hour
Temperature (ºF) Pressure Precipitation (in)